Time;durP1;ratioP1;P1;durP2;ratioP2;P2;SDS_P1;SDS_P2;PMS_P1;PMS_P2;Temp;Humidity;BMP_temperature;BMP_pressure;BME280_temperature;BME280_humidity;BME280_pressure;Samples;Min_cycle;Max_cycle;Signal;HPM_P1;HPM_P2
2022/08/07 00:01:59;;;;;;;4.95;3.60;;;;;;;20.22;57.89;96372.78;10365844;28;98448;-65
2022/08/07 00:07:23;;;;;;;5.30;4.45;;;;;;;20.13;58.35;96363.38;10369676;28;99042;-64
2022/08/07 00:12:30;;;;;;;4.03;3.53;;;;;;;20.19;58.34;96373.16;10367881;28;97979;-64
2022/08/07 00:17:34;;;;;;;4.40;3.80;;;;;;;20.14;57.66;96360.50;10368110;28;97338;-63
2022/08/07 00:22:39;;;;;;;4.20;3.78;;;;;;;20.13;58.44;96358.06;10362501;28;97120;-64
2022/08/07 00:27:44;;;;;;;4.45;3.95;;;;;;;20.02;58.47;96358.69;10364142;28;98735;-65
2022/08/07 00:32:59;;;;;;;4.20;3.80;;;;;;;19.94;59.22;96339.31;10363153;28;97608;-64
2022/08/07 00:38:04;;;;;;;4.10;3.50;;;;;;;20.05;58.11;96334.44;10360537;28;97324;-64
2022/08/07 00:43:09;;;;;;;4.18;3.78;;;;;;;20.09;58.04;96325.84;10366242;28;98401;-64
2022/08/07 00:48:32;;;;;;;3.80;3.50;;;;;;;20.04;58.08;96308.91;10365756;28;97329;-67
2022/08/07 00:53:36;;;;;;;4.65;4.25;;;;;;;20.02;57.86;96318.91;10363881;28;97787;-64
2022/08/07 00:58:52;;;;;;;3.92;3.28;;;;;;;19.97;58.16;96317.72;10364458;28;96871;-64
2022/08/07 01:03:55;;;;;;;3.97;3.53;;;;;;;19.88;58.09;96318.91;10366830;28;98587;-63
2022/08/07 01:09:04;;;;;;;4.28;3.70;;;;;;;19.80;59.08;96321.72;10365507;28;97843;-64
2022/08/07 01:14:09;;;;;;;4.88;3.92;;;;;;;19.61;58.93;96316.25;10364775;28;98038;-64
2022/08/07 01:19:12;;;;;;;4.32;3.92;;;;;;;19.52;58.90;96311.31;10365080;28;98161;-65
2022/08/07 01:24:23;;;;;;;4.28;3.80;;;;;;;19.39;59.78;96306.84;10366057;28;97670;-64
2022/08/07 01:29:30;;;;;;;4.10;3.70;;;;;;;19.28;59.75;96316.19;10368718;28;97065;-64
2022/08/07 01:34:36;;;;;;;4.75;4.03;;;;;;;19.16;60.64;96315.97;10364878;28;98025;-63
2022/08/07 01:39:41;;;;;;;4.95;3.97;;;;;;;19.01;60.39;96312.66;10365530;28;96804;-64
2022/08/07 01:44:48;;;;;;;4.47;4.07;;;;;;;18.96;60.62;96315.88;10367465;28;96806;-63
2022/08/07 01:49:51;;;;;;;4.40;3.95;;;;;;;18.98;60.55;96323.63;10367539;28;96840;-66
2022/08/07 01:55:00;;;;;;;4.30;3.90;;;;;;;18.97;60.27;96330.75;10362822;28;96869;-63
2022/08/07 02:00:08;;;;;;;4.45;4.05;;;;;;;19.06;61.23;96326.13;10363639;28;98975;-66
2022/08/07 02:05:23;;;;;;;4.20;3.80;;;;;;;19.14;60.78;96325.94;10367663;28;97228;-63
2022/08/07 02:10:52;;;;;;;5.00;3.65;;;;;;;19.17;60.54;96335.31;10377156;28;96759;-64
2022/08/07 02:16:02;;;;;;;4.13;3.60;;;;;;;19.12;60.11;96330.59;10364060;28;97894;-64
2022/08/07 02:21:09;;;;;;;4.30;3.90;;;;;;;19.17;60.70;96337.94;10374084;28;96779;-63
2022/08/07 02:26:20;;;;;;;4.25;3.85;;;;;;;19.23;59.94;96332.69;10372294;28;96836;-64
2022/08/07 02:31:37;;;;;;;4.75;4.20;;;;;;;19.23;60.66;96330.03;10373729;28;97598;-63
2022/08/07 02:36:43;;;;;;;4.97;4.32;;;;;;;19.20;61.38;96317.19;10371712;28;96748;-63
2022/08/07 02:41:50;;;;;;;4.93;4.40;;;;;;;19.25;60.38;96314.75;10364490;28;97936;-63
2022/08/07 02:46:59;;;;;;;4.80;4.40;;;;;;;19.20;60.44;96306.59;10374941;28;97163;-63
2022/08/07 02:52:09;;;;;;;5.20;4.70;;;;;;;19.22;60.35;96304.53;10372590;28;97084;-63
2022/08/07 02:57:19;;;;;;;4.82;4.22;;;;;;;19.32;60.78;96298.06;10371450;28;97528;-63
2022/08/07 03:02:24;;;;;;;5.13;4.38;;;;;;;19.34;59.93;96291.53;10369306;28;97839;-65
2022/08/07 03:07:29;;;;;;;4.82;4.30;;;;;;;19.43;60.05;96289.50;10367010;28;97093;-63
2022/08/07 03:12:54;;;;;;;4.70;4.27;;;;;;;19.49;59.73;96288.72;10366742;28;96926;-64
2022/08/07 03:17:58;;;;;;;4.07;3.67;;;;;;;19.51;59.96;96286.69;10367550;28;96956;-64
2022/08/07 03:23:03;;;;;;;4.68;3.97;;;;;;;19.50;59.72;96278.94;10361756;28;96838;-63
2022/08/07 03:28:22;;;;;;;7.43;4.80;;;;;;;19.50;59.33;96274.44;10361824;28;96997;-64
2022/08/07 03:33:42;;;;;;;4.50;4.00;;;;;;;19.43;60.50;96277.06;10368943;28;96820;-67
2022/08/07 03:38:47;;;;;;;5.18;4.50;;;;;;;19.45;59.79;96268.91;10365053;28;98788;-64
2022/08/07 03:43:53;;;;;;;4.70;4.30;;;;;;;19.47;60.40;96269.56;10370089;28;97827;-63
2022/08/07 03:48:59;;;;;;;6.25;4.25;;;;;;;19.46;59.96;96262.63;10367584;28;96856;-63
2022/08/07 03:54:05;;;;;;;4.45;4.05;;;;;;;19.47;59.69;96264.25;10363599;28;98725;-63
2022/08/07 03:59:31;;;;;;;4.97;4.47;;;;;;;19.49;59.73;96264.88;10370274;28;97883;-63
2022/08/07 04:04:34;;;;;;;4.68;4.28;;;;;;;19.48;59.67;96257.94;10371152;28;98703;-63
2022/08/07 04:09:40;;;;;;;5.50;4.67;;;;;;;19.48;59.68;96259.78;10366814;28;98986;-70
2022/08/07 04:14:54;;;;;;;4.85;4.45;;;;;;;19.48;59.28;96257.94;10368651;28;98492;-63
2022/08/07 04:19:58;;;;;;;4.93;4.50;;;;;;;19.52;58.77;96256.53;10370656;28;98910;-63
2022/08/07 04:25:01;;;;;;;5.05;4.53;;;;;;;19.57;58.79;96259.34;10369414;28;96819;-64
2022/08/07 04:30:06;;;;;;;4.70;4.30;;;;;;;19.51;59.17;96265.47;10365712;28;98391;-68
2022/08/07 04:35:23;;;;;;;4.40;4.00;;;;;;;19.48;59.57;96276.47;10365693;28;96773;-63
2022/08/07 04:40:26;;;;;;;4.63;4.22;;;;;;;19.45;59.53;96266.28;10367833;28;97330;-63
2022/08/07 04:45:40;;;;;;;5.10;4.60;;;;;;;19.44;59.24;96275.25;10367300;28;98729;-67
2022/08/07 04:51:08;;;;;;;5.50;4.88;;;;;;;19.52;59.19;96277.72;10368603;28;96916;-63
2022/08/07 04:56:18;;;;;;;5.25;4.38;;;;;;;19.57;59.33;96275.25;10362982;28;97273;-64
2022/08/07 05:01:49;;;;;;;5.97;5.38;;;;;;;19.55;59.42;96279.94;10366934;28;96832;-64
2022/08/07 05:06:58;;;;;;;5.43;4.93;;;;;;;19.41;59.56;96288.91;10365778;28;98756;-63
2022/08/07 05:12:05;;;;;;;4.65;4.25;;;;;;;19.40;59.61;96288.09;10364706;28;98054;-63
2022/08/07 05:17:14;;;;;;;4.80;4.30;;;;;;;19.39;60.02;96290.94;10367375;28;96930;-64
2022/08/07 05:22:39;;;;;;;5.55;4.78;;;;;;;19.30;59.58;96294.78;10368580;28;97791;-63
2022/08/07 05:27:43;;;;;;;5.72;4.55;;;;;;;19.28;59.64;96302.13;10368603;28;97009;-66
2022/08/07 05:33:09;;;;;;;5.72;4.95;;;;;;;19.27;60.31;96300.50;10366829;28;97226;-64
2022/08/07 05:38:14;;;;;;;5.65;4.97;;;;;;;19.31;59.54;96301.72;10363254;28;97023;-64
2022/08/07 05:43:39;;;;;;;5.18;4.68;;;;;;;19.30;59.33;96303.56;10374917;28;99477;-63
2022/08/07 05:49:05;;;;;;;5.43;4.93;;;;;;;19.33;59.63;96304.97;10367019;28;97071;-63
2022/08/07 05:54:16;;;;;;;7.68;6.00;;;;;;;19.40;59.51;96300.50;10373504;28;97937;-66
2022/08/07 05:59:37;;;;;;;6.05;4.78;;;;;;;19.41;60.17;96323.34;10371649;28;98127;-63
2022/08/07 06:05:04;;;;;;;6.30;5.00;;;;;;;19.43;60.02;96316.00;10362706;28;98257;-64
2022/08/07 06:10:11;;;;;;;5.15;4.65;;;;;;;19.50;59.82;96313.38;10374001;28;96855;-64
2022/08/07 06:15:18;;;;;;;5.13;4.55;;;;;;;19.61;59.71;96321.53;10374485;28;96981;-63
2022/08/07 06:20:24;;;;;;;5.53;5.00;;;;;;;19.63;59.03;96314.19;10374777;28;96931;-64
2022/08/07 06:25:47;;;;;;;;;;;;;;;19.62;59.06;96325.81;10373268;28;98487;-64
2022/08/07 06:30:56;;;;;;;5.03;4.47;;;;;;;19.60;59.54;96322.53;10374812;28;98590;-64
2022/08/07 06:36:01;;;;;;;5.43;4.93;;;;;;;19.74;58.87;96326.03;10375687;28;98941;-64
2022/08/07 06:41:21;;;;;;;6.85;5.25;;;;;;;19.86;59.24;96320.97;10373272;28;96769;-64
2022/08/07 06:46:43;;;;;;;5.88;4.47;;;;;;;19.97;58.65;96328.31;10369297;28;96808;-63
2022/08/07 06:52:10;;;;;;;4.85;4.45;;;;;;;20.19;58.32;96328.09;10371453;28;98519;-64
2022/08/07 06:57:13;;;;;;;6.60;4.18;;;;;;;20.25;57.58;96329.91;10371832;28;97076;-64
2022/08/07 07:02:18;;;;;;;4.88;4.40;;;;;;;20.16;58.49;96325.84;10370471;28;98824;-64
2022/08/07 07:07:45;;;;;;;5.28;4.60;;;;;;;20.04;58.75;96322.97;10369873;28;96841;-64
2022/08/07 07:13:09;;;;;;;4.20;3.80;;;;;;;20.20;58.16;96324.41;10374111;28;96972;-64
2022/08/07 07:18:19;;;;;;;5.15;4.65;;;;;;;20.29;57.88;96319.72;10371905;28;98031;-64
2022/08/07 07:23:44;;;;;;;4.55;4.15;;;;;;;20.30;57.64;96326.63;10374640;28;97308;-64
2022/08/07 07:29:10;;;;;;;;;;;;;;;20.40;57.21;96316.41;10367228;28;97273;-64
2022/08/07 07:34:36;;;;;;;5.00;3.85;;;;;;;20.71;56.87;96321.00;10371773;28;97838;-64
2022/08/07 07:39:45;;;;;;;5.55;3.88;;;;;;;20.97;56.20;96314.00;10372548;28;96960;-64
2022/08/07 07:44:59;;;;;;;3.92;3.53;;;;;;;21.27;55.54;96308.94;10367472;28;97165;-64
2022/08/07 07:50:03;;;;;;;4.93;4.47;;;;;;;21.36;55.30;96296.19;10370748;28;98353;-63
2022/08/07 07:55:29;;;;;;;4.83;3.87;;;;;;;21.45;55.09;96297.59;10357118;28;101987;-64
2022/08/07 08:00:49;;;;;;;5.00;4.50;;;;;;;21.61;54.92;96306.06;10371350;28;96809;-64
2022/08/07 08:05:57;;;;;;;4.60;4.20;;;;;;;21.77;54.40;96302.91;10370890;28;97083;-64
2022/08/07 08:11:02;;;;;;;4.00;3.60;;;;;;;21.77;54.23;96304.75;10373310;28;97044;-64
2022/08/07 08:16:06;;;;;;;5.00;4.50;;;;;;;21.74;54.43;96306.00;10369268;28;97855;-64
2022/08/07 08:27:08;;;;;;;5.00;4.22;;;;;;;22.23;53.57;96299.03;10366062;28;97547;-64
2022/08/07 08:32:15;;;;;;;4.93;3.85;;;;;;;22.44;53.72;96294.31;10367104;28;96796;-65
2022/08/07 08:37:29;;;;;;;6.03;4.38;;;;;;;22.68;52.74;96305.13;10367839;28;96841;-65
2022/08/07 08:42:58;;;;;;;4.18;3.78;;;;;;;22.93;52.32;96305.84;10368806;28;96924;-65
2022/08/07 08:48:08;;;;;;;3.67;3.33;;;;;;;23.17;52.01;96300.63;10359127;28;98475;-64
2022/08/07 08:53:19;;;;;;;4.38;3.78;;;;;;;23.36;51.04;96302.22;10378888;28;96835;-66
2022/08/07 08:58:46;;;;;;;3.80;3.30;;;;;;;23.63;50.14;96299.16;10365577;28;96874;-65
2022/08/07 09:04:07;;;;;;;4.32;3.50;;;;;;;23.74;49.88;96297.53;10367555;28;98507;-64
2022/08/07 09:09:25;;;;;;;3.78;3.45;;;;;;;23.82;49.84;96288.41;10369633;28;96798;-65
2022/08/07 09:14:40;;;;;;;4.00;3.60;;;;;;;23.83;49.78;96296.19;10366807;28;98576;-64
2022/08/07 09:19:57;;;;;;;4.65;3.35;;;;;;;23.87;49.89;96291.22;10374198;28;99362;-65
2022/08/07 09:25:08;;;;;;;4.03;3.63;;;;;;;23.93;49.91;96291.09;10379408;28;96878;-65
2022/08/07 09:30:24;;;;;;;4.43;3.58;;;;;;;24.04;49.28;96286.81;10374094;28;96866;-65
2022/08/07 09:35:42;;;;;;;3.85;3.45;;;;;;;24.21;49.02;96286.13;10378645;28;97659;-65
2022/08/07 09:41:14;;;;;;;3.80;3.40;;;;;;;24.06;49.65;96284.75;10377906;28;97169;-66
2022/08/07 09:46:29;;;;;;;4.13;3.72;;;;;;;24.12;49.48;96278.50;10365696;28;98856;-64
2022/08/07 09:52:04;;;;;;;3.30;2.97;;;;;;;23.82;48.81;96280.41;10370668;28;97176;-64
2022/08/07 09:58:06;;;;;;;3.72;3.30;;;;;;;23.85;49.18;96278.09;10378358;28;97553;-65
2022/08/07 10:03:42;;;;;;;4.07;3.03;;;;;;;23.96;49.45;96273.81;10270509;28;96925;-65
2022/08/07 10:09:32;;;;;;;5.82;3.38;;;;;;;23.84;49.77;96265.78;10264580;28;97726;-64
2022/08/07 10:15:18;;;;;;;4.38;3.38;;;;;;;23.71;50.00;96250.81;10269723;28;97090;-64
2022/08/07 10:20:32;;;;;;;3.63;3.33;;;;;;;23.61;50.37;96252.44;10243571;28;96969;-65
2022/08/07 10:25:50;;;;;;;4.30;3.20;;;;;;;23.74;49.37;96252.22;10254050;28;97002;-64
2022/08/07 10:31:11;;;;;;;3.70;3.30;;;;;;;23.79;49.21;96246.19;10256470;28;97365;-65
2022/08/07 10:36:25;;;;;;;3.60;3.30;;;;;;;23.93;49.48;96252.91;10270859;28;97643;-64
2022/08/07 10:41:44;;;;;;;4.95;3.80;;;;;;;23.90;48.88;96245.41;10366645;28;96818;-65
2022/08/07 10:47:05;;;;;;;3.45;3.00;;;;;;;23.99;48.94;96236.00;10375627;28;98558;-64
2022/08/07 10:52:21;;;;;;;3.58;3.28;;;;;;;24.20;48.48;96229.28;10375540;28;97101;-62
2022/08/07 10:57:46;;;;;;;3.70;3.40;;;;;;;23.97;49.10;96238.09;10374527;28;96901;-63
2022/08/07 11:03:05;;;;;;;7.25;6.15;;;;;;;24.16;48.33;96235.31;10376901;28;96849;-61
2022/08/07 11:08:24;;;;;;;5.28;4.78;;;;;;;24.34;48.00;96223.69;10363394;28;97207;-62
2022/08/07 11:13:36;;;;;;;4.20;3.00;;;;;;;24.59;47.47;96234.06;10360394;28;99751;-64
2022/08/07 11:19:16;;;;;;;3.38;2.53;;;;;;;24.75;47.10;96222.63;10366149;28;97472;-64
2022/08/07 11:24:37;;;;;;;3.55;2.78;;;;;;;24.89;46.91;96223.19;10368369;28;96743;-64
2022/08/07 11:29:52;;;;;;;3.40;3.10;;;;;;;24.76;47.25;96218.91;10371325;28;96978;-61
2022/08/07 11:35:21;;;;;;;4.68;4.25;;;;;;;24.53;47.14;96219.00;10371301;28;96892;-61
2022/08/07 11:40:39;;;;;;;4.28;3.88;;;;;;;24.69;47.34;96215.56;10373497;27;97063;-64
2022/08/07 11:46:09;;;;;;;3.88;2.95;;;;;;;25.02;46.33;96214.06;10365473;28;96962;-64
2022/08/07 11:51:25;;;;;;;3.05;2.75;;;;;;;25.15;46.38;96205.75;10360639;28;98259;-66
2022/08/07 11:57:03;;;;;;;2.83;2.63;;;;;;;25.21;46.02;96202.09;10371749;28;96907;-64
2022/08/07 12:02:23;;;;;;;3.78;2.95;;;;;;;25.33;45.62;96211.94;10372239;28;97674;-65
2022/08/07 12:07:36;;;;;;;3.38;2.80;;;;;;;25.24;46.18;96204.31;10365470;28;98536;-64
2022/08/07 12:12:48;;;;;;;3.30;3.00;;;;;;;25.48;45.56;96204.16;10361817;28;96906;-64
2022/08/07 12:17:57;;;;;;;3.22;2.75;;;;;;;25.69;44.92;96204.50;10369191;28;97862;-65
2022/08/07 12:23:38;;;;;;;3.20;2.90;;;;;;;25.63;45.19;96187.56;10369508;28;97812;-64
2022/08/07 12:29:08;;;;;;;3.22;2.58;;;;;;;25.63;45.24;96190.22;10365493;28;98032;-65
2022/08/07 12:34:14;;;;;;;3.05;2.65;;;;;;;25.62;45.35;96192.09;10367715;28;96893;-65
2022/08/07 12:39:19;;;;;;;;;;;;;;;25.82;44.99;96190.78;10364162;28;97530;-66
2022/08/07 12:44:48;;;;;;;2.53;2.33;;;;;;;25.98;44.16;96187.28;10368379;28;99002;-64
2022/08/07 12:49:57;;;;;;;3.00;2.80;;;;;;;25.98;44.38;96186.44;10360531;28;97843;-65
2022/08/07 12:55:26;;;;;;;2.78;2.58;;;;;;;26.26;43.73;96176.66;10367785;28;97782;-69
2022/08/07 13:01:00;;;;;;;3.53;2.72;;;;;;;26.24;43.82;96166.19;10363616;28;98460;-65
2022/08/07 13:06:15;;;;;;;3.05;2.75;;;;;;;26.39;43.14;96164.78;10366052;28;98579;-64
2022/08/07 13:11:47;;;;;;;3.08;2.60;;;;;;;26.45;43.17;96161.09;10362727;28;98363;-65
2022/08/07 13:17:15;;;;;;;2.85;2.60;;;;;;;26.52;43.02;96159.03;10357864;28;99140;-66
2022/08/07 13:22:30;;;;;;;4.70;3.42;;;;;;;26.67;42.69;96155.72;10363337;28;97087;-68
2022/08/07 13:27:38;;;;;;;2.83;2.63;;;;;;;26.51;42.88;96152.06;10362676;28;96802;-65
2022/08/07 13:33:08;;;;;;;2.67;2.30;;;;;;;26.85;42.48;96146.50;10359741;28;97348;-66
2022/08/07 13:38:40;;;;;;;3.20;2.90;;;;;;;26.69;42.75;96129.47;10363577;28;97905;-65
2022/08/07 13:43:45;;;;;;;2.83;2.63;;;;;;;26.91;42.14;96140.94;10357063;28;98599;-65
2022/08/07 13:49:00;;;;;;;3.05;2.75;;;;;;;27.00;42.21;96133.28;10369910;28;97016;-66
2022/08/07 13:54:06;;;;;;;2.67;2.47;;;;;;;27.39;41.17;96141.09;10362796;28;96988;-65
2022/08/07 13:59:14;;;;;;;2.50;2.30;;;;;;;27.68;40.59;96122.81;10359193;28;98387;-65
2022/08/07 14:04:20;;;;;;;2.63;2.42;;;;;;;28.02;40.11;96127.00;10368317;28;97600;-65
2022/08/07 14:09:36;;;;;;;4.53;3.47;;;;;;;28.32;39.89;96125.53;10370515;28;98769;-65
2022/08/07 14:15:02;;;;;;;3.42;3.13;;;;;;;28.52;39.42;96116.75;10370984;28;97167;-65
2022/08/07 14:20:15;;;;;;;2.70;2.50;;;;;;;28.75;38.85;96118.13;10374487;28;97116;-65
2022/08/07 14:25:40;;;;;;;2.88;2.58;;;;;;;28.65;39.07;96115.41;10370744;28;96908;-67
2022/08/07 14:30:51;;;;;;;3.35;2.65;;;;;;;28.08;39.92;96122.47;10372852;28;96792;-65
2022/08/07 14:35:59;;;;;;;3.10;2.78;;;;;;;28.47;38.74;96122.09;10373956;28;97035;-67
2022/08/07 14:41:07;;;;;;;2.60;2.40;;;;;;;27.90;39.42;96113.78;10376073;28;97163;-65
2022/08/07 14:46:18;;;;;;;3.05;2.75;;;;;;;28.58;38.82;96124.53;10373663;28;97138;-65
2022/08/07 14:51:37;;;;;;;2.55;2.13;;;;;;;29.80;37.17;96129.44;10359794;28;97968;-69
2022/08/07 14:57:01;;;;;;;2.40;2.20;;;;;;;30.77;35.88;96145.25;10370478;28;98935;-65
2022/08/07 15:02:11;;;;;;;2.20;2.00;;;;;;;30.90;35.72;96122.25;10365775;28;97509;-66
2022/08/07 15:07:35;;;;;;;2.38;2.17;;;;;;;31.86;33.90;96126.28;10368354;28;98017;-66
2022/08/07 15:13:02;;;;;;;3.75;2.45;;;;;;;32.23;33.52;96120.22;10380546;27;97664;-65
2022/08/07 15:18:18;;;;;;;2.13;1.95;;;;;;;32.45;33.04;96118.84;10367147;28;96858;-66
2022/08/07 15:23:41;;;;;;;3.33;2.40;;;;;;;31.63;34.33;96128.69;10362782;28;98494;-66
2022/08/07 15:29:06;;;;;;;3.92;2.17;;;;;;;31.14;34.54;96122.34;10368640;28;97114;-66
2022/08/07 15:34:34;;;;;;;2.65;2.35;;;;;;;30.38;35.76;96121.72;10360241;28;97767;-66
2022/08/07 15:39:41;;;;;;;2.45;2.25;;;;;;;30.78;35.45;96119.09;10367891;28;97553;-66
2022/08/07 15:45:01;;;;;;;2.80;2.60;;;;;;;30.24;35.87;96123.41;10368537;28;96849;-66
2022/08/07 15:50:16;;;;;;;3.03;2.72;;;;;;;29.16;37.12;96120.88;10363315;28;97458;-67
2022/08/07 15:55:44;;;;;;;2.28;2.08;;;;;;;29.65;36.59;96120.31;10362050;28;98616;-69
2022/08/07 16:01:12;;;;;;;2.42;2.22;;;;;;;30.20;35.91;96117.75;10359941;28;97759;-68
2022/08/07 16:06:29;;;;;;;2.97;2.17;;;;;;;30.69;35.38;96129.63;10357593;28;99115;-67
2022/08/07 16:12:00;;;;;;;2.65;2.28;;;;;;;30.59;35.60;96116.22;10359472;28;98291;-65
2022/08/07 16:17:19;;;;;;;3.50;2.50;;;;;;;30.06;36.30;96114.00;10362466;28;98643;-67
2022/08/07 16:23:00;;;;;;;3.00;2.63;;;;;;;29.87;36.63;96117.31;10352689;28;98770;-69
2022/08/07 16:28:29;;;;;;;2.80;2.58;;;;;;;29.09;38.02;96118.47;10356070;28;99338;-63
2022/08/07 16:33:54;;;;;;;3.40;3.10;;;;;;;28.30;39.22;96116.94;10357343;28;98453;-61
2022/08/07 16:39:32;;;;;;;3.20;2.67;;;;;;;28.04;39.46;96114.94;10365765;28;96876;-62
2022/08/07 16:45:12;;;;;;;2.80;2.60;;;;;;;27.68;39.85;96122.81;10359375;28;98065;-62
2022/08/07 16:50:44;;;;;;;2.95;2.67;;;;;;;27.27;40.55;96113.66;10359439;28;100069;-66
2022/08/07 16:56:18;;;;;;;3.35;2.50;;;;;;;27.01;40.92;96123.38;10356078;28;97995;-65
2022/08/07 17:01:48;;;;;;;26.38;15.20;;;;;;;26.85;40.96;96119.69;10360809;28;97467;-66
2022/08/07 17:06:56;;;;;;;4.50;2.85;;;;;;;26.85;40.97;96122.38;10358443;28;98947;-68
2022/08/07 17:12:14;;;;;;;5.30;3.75;;;;;;;26.54;41.61;96114.84;10363411;28;96857;-71
2022/08/07 17:17:44;;;;;;;2.88;2.60;;;;;;;26.40;42.11;96128.88;10361674;28;96939;-65
2022/08/07 17:22:59;;;;;;;3.20;2.90;;;;;;;26.07;42.77;96136.78;10369336;28;96819;-65
2022/08/07 17:28:09;;;;;;;3.10;2.63;;;;;;;25.70;42.93;96093.75;10359269;28;98950;-65
2022/08/07 17:33:18;;;;;;;3.95;2.63;;;;;;;25.61;43.53;96138.84;10364788;28;96894;-66
2022/08/07 17:38:53;;;;;;;2.55;2.35;;;;;;;25.59;43.68;96140.97;10361038;28;97723;-66
2022/08/07 17:44:02;;;;;;;2.92;2.72;;;;;;;25.44;43.50;96133.47;10374963;28;96883;-65
2022/08/07 17:49:21;;;;;;;4.13;2.40;;;;;;;25.39;43.69;96131.56;10365223;28;98928;-66
2022/08/07 17:54:36;;;;;;;2.97;2.50;;;;;;;25.43;44.03;96137.22;10357235;28;97686;-67
2022/08/07 18:00:04;;;;;;;2.90;2.60;;;;;;;25.31;44.00;96133.84;10362549;28;98992;-69
2022/08/07 18:05:15;;;;;;;3.55;2.50;;;;;;;25.03;44.16;96133.66;10361350;28;97753;-65
2022/08/07 18:10:36;;;;;;;4.82;2.40;;;;;;;24.94;44.73;96145.81;10363551;28;98334;-67
2022/08/07 18:16:04;;;;;;;6.50;2.90;;;;;;;24.67;45.13;96146.34;10360275;28;96944;-67
2022/08/07 18:21:15;;;;;;;4.38;2.65;;;;;;;24.41;45.60;96146.94;10358713;28;97664;-66
2022/08/07 18:27:24;;;;;;;2.90;2.60;;;;;;;24.24;46.54;96162.88;10364729;28;97814;-65
2022/08/07 18:33:16;;;;;;;3.28;2.78;;;;;;;24.03;46.62;96165.09;10316072;28;97058;-68
2022/08/07 18:38:27;;;;;;;3.28;2.70;;;;;;;23.81;46.92;96148.91;10313617;28;99009;-66
2022/08/07 18:43:57;;;;;;;3.47;3.15;;;;;;;23.65;48.14;96173.59;10327933;28;97043;-65
2022/08/07 18:49:04;;;;;;;2.90;2.60;;;;;;;23.44;48.44;96185.66;10334192;28;97105;-65
2022/08/07 18:54:39;;;;;;;3.20;2.90;;;;;;;23.24;48.87;96186.75;10315605;28;97614;-69
2022/08/07 19:00:00;;;;;;;3.10;2.60;;;;;;;23.08;49.41;96192.72;10315107;28;97299;-67
2022/08/07 19:05:27;;;;;;;3.50;3.17;;;;;;;22.91;49.61;96193.38;10342489;28;97691;-68
2022/08/07 19:10:59;;;;;;;3.63;2.90;;;;;;;22.75;50.06;96207.31;10366418;28;97573;-66
2022/08/07 19:16:09;;;;;;;3.35;2.90;;;;;;;22.53;50.24;96213.16;10372737;28;96824;-65
2022/08/07 19:21:43;;;;;;;4.13;3.72;;;;;;;22.39;50.83;96214.31;10354960;28;98444;-61
2022/08/07 19:27:11;;;;;;;3.57;3.13;;;;;;;22.30;50.82;96219.13;10349691;28;99400;-63
2022/08/07 19:32:38;;;;;;;4.72;3.55;;;;;;;22.23;50.95;96226.34;10357875;28;97888;-68
2022/08/07 19:37:53;;;;;;;10.55;9.45;;;;;;;22.13;51.30;96237.53;10359195;28;97859;-62
2022/08/07 19:43:08;;;;;;;5.65;4.97;;;;;;;22.04;51.31;96231.69;10357042;28;98943;-63
2022/08/07 19:48:14;;;;;;;3.47;3.17;;;;;;;22.04;51.29;96258.28;10357539;28;97615;-62
2022/08/07 19:53:26;;;;;;;3.58;3.28;;;;;;;21.93;51.51;96256.31;10358799;28;97673;-61
2022/08/07 19:58:52;;;;;;;3.50;3.20;;;;;;;21.83;51.79;96256.84;10355817;28;97090;-63
2022/08/07 20:03:57;;;;;;;3.58;3.28;;;;;;;21.75;52.24;96256.31;10361449;28;96940;-65
2022/08/07 20:09:02;;;;;;;3.55;3.10;;;;;;;21.66;52.44;96258.41;10360998;28;98877;-65
2022/08/07 20:14:08;;;;;;;3.28;2.97;;;;;;;21.51;53.09;96254.19;10353611;28;98851;-65
2022/08/07 20:19:25;;;;;;;3.30;3.00;;;;;;;21.48;53.29;96257.31;10357711;28;98529;-65
2022/08/07 20:24:54;;;;;;;4.43;3.20;;;;;;;21.38;53.25;96249.00;10358405;28;98822;-65
2022/08/07 20:30:01;;;;;;;3.58;3.08;;;;;;;21.34;53.70;96247.78;10367415;28;96964;-65
2022/08/07 20:35:15;;;;;;;4.00;3.60;;;;;;;21.32;53.48;96239.22;10365402;28;98068;-65
2022/08/07 20:40:27;;;;;;;3.53;3.17;;;;;;;21.24;53.62;96242.13;10358496;28;98727;-68
2022/08/07 20:45:38;;;;;;;3.58;3.28;;;;;;;21.12;53.99;96234.84;10359852;28;97580;-64
2022/08/07 20:51:05;;;;;;;3.40;3.10;;;;;;;21.11;54.17;96238.53;10363023;28;97828;-65
2022/08/07 20:56:13;;;;;;;4.22;3.42;;;;;;;21.06;53.99;96237.56;10361428;28;97320;-65
2022/08/07 21:01:20;;;;;;;3.78;3.25;;;;;;;20.97;54.18;96242.31;10368019;28;97653;-64
2022/08/07 21:06:26;;;;;;;3.42;3.13;;;;;;;20.93;54.43;96235.81;10374127;28;98132;-65
2022/08/07 21:11:35;;;;;;;3.50;3.03;;;;;;;20.90;54.32;96228.25;10370708;28;98776;-65
2022/08/07 21:16:58;;;;;;;3.22;2.92;;;;;;;20.83;54.43;96227.47;10383657;28;97434;-65
2022/08/07 21:22:23;;;;;;;2.97;2.67;;;;;;;20.81;53.80;96221.53;10373455;28;96990;-65
2022/08/07 21:27:37;;;;;;;6.55;2.70;;;;;;;20.87;52.90;96226.03;10374850;28;98323;-64
2022/08/07 21:32:58;;;;;;;3.05;2.50;;;;;;;20.91;52.47;96227.22;10372191;28;97523;-67
2022/08/07 21:38:08;;;;;;;2.83;2.33;;;;;;;20.99;52.03;96223.50;10371331;28;98503;-65
2022/08/07 21:43:20;;;;;;;5.50;4.38;;;;;;;21.00;51.24;96220.63;10387609;28;96999;-62
2022/08/07 21:48:33;;;;;;;3.42;2.20;;;;;;;21.02;50.60;96223.88;10375854;28;96985;-61
2022/08/07 21:53:49;;;;;;;11.27;9.40;;;;;;;21.03;50.47;96236.16;10375884;28;97304;-64
2022/08/07 21:59:00;;;;;;;4.60;3.85;;;;;;;21.02;49.71;96229.19;10371700;28;98617;-64
2022/08/07 22:04:08;;;;;;;2.70;2.03;;;;;;;20.98;49.47;96228.00;10374859;28;98735;-64
2022/08/07 22:09:20;;;;;;;2.25;2.00;;;;;;;20.97;49.63;96239.66;10366883;28;97866;-64
2022/08/07 22:14:34;;;;;;;3.22;2.00;;;;;;;20.92;49.37;96231.50;10370043;28;98554;-66
2022/08/07 22:19:54;;;;;;;3.78;1.95;;;;;;;20.87;49.08;96240.09;10366625;28;98448;-64
2022/08/07 22:25:04;;;;;;;2.35;1.80;;;;;;;20.82;48.88;96239.13;10362414;28;98668;-66
2022/08/07 22:30:18;;;;;;;3.42;1.90;;;;;;;20.74;49.07;96248.94;10364579;28;96878;-65
2022/08/07 22:35:23;;;;;;;2.25;2.05;;;;;;;20.65;49.03;96247.53;10371077;28;98924;-65
2022/08/07 22:40:50;;;;;;;2.33;2.00;;;;;;;20.53;49.25;96246.56;10364230;28;97697;-67
2022/08/07 22:46:14;;;;;;;2.95;2.40;;;;;;;20.44;49.84;96247.81;10364037;28;98647;-64
2022/08/07 22:51:58;;;;;;;3.85;2.50;;;;;;;20.22;51.02;96250.75;10361539;28;97553;-65
2022/08/07 22:57:14;;;;;;;2.13;1.92;;;;;;;20.13;50.68;96252.81;10196636;28;97707;-64
2022/08/07 23:02:34;;;;;;;2.97;2.13;;;;;;;19.97;51.69;96243.47;10203545;28;98555;-64
2022/08/07 23:07:52;;;;;;;2.50;2.30;;;;;;;19.83;51.74;96252.44;10194443;28;96921;-64
2022/08/07 23:13:06;;;;;;;2.42;2.03;;;;;;;19.48;52.32;96263.22;10192395;28;97752;-66
2022/08/07 23:18:23;;;;;;;2.20;2.00;;;;;;;19.17;52.97;96254.03;10193734;28;98557;-66
2022/08/07 23:23:46;;;;;;;2.33;2.13;;;;;;;19.10;52.14;96258.50;10195944;28;98415;-64
2022/08/07 23:29:44;;;;;;;3.05;2.10;;;;;;;19.05;53.53;96266.22;10195400;28;98610;-64
2022/08/07 23:35:14;;;;;;;2.38;2.17;;;;;;;18.92;54.08;96263.56;10347049;28;97495;-64
2022/08/07 23:40:32;;;;;;;2.38;2.17;;;;;;;18.81;54.38;96262.25;10372743;28;97041;-63
2022/08/07 23:45:42;;;;;;;2.50;2.20;;;;;;;18.65;55.37;96264.25;10358927;28;98726;-66
2022/08/07 23:51:09;;;;;;;3.92;2.15;;;;;;;18.56;55.11;96254.84;10362956;28;97223;-64
2022/08/07 23:56:49;;;;;;;2.50;2.30;;;;;;;18.57;55.89;96258.28;10367018;28;96884;-64
